sensor_id;sensor_type;location;lat;lon;timestamp;temperature;humidity
54622;DHT22;40521;53.146;6.556;2023-03-20T00:01:14;7.00;99.90
54622;DHT22;40521;53.146;6.556;2023-03-20T00:03:41;6.90;99.90
54622;DHT22;40521;53.146;6.556;2023-03-20T00:06:13;6.90;99.90
54622;DHT22;40521;53.146;6.556;2023-03-20T00:08:39;6.80;99.90
54622;DHT22;40521;53.146;6.556;2023-03-20T00:11:04;6.80;99.90
54622;DHT22;40521;53.146;6.556;2023-03-20T00:13:30;6.80;99.90
54622;DHT22;40521;53.146;6.556;2023-03-20T00:15:56;6.80;99.90
54622;DHT22;40521;53.146;6.556;2023-03-20T00:18:22;6.70;99.90
54622;DHT22;40521;53.146;6.556;2023-03-20T00:20:48;6.70;99.90
54622;DHT22;40521;53.146;6.556;2023-03-20T00:23:14;6.70;99.90
54622;DHT22;40521;53.146;6.556;2023-03-20T00:25:40;6.70;99.90
54622;DHT22;40521;53.146;6.556;2023-03-20T00:34:08;6.70;99.90
54622;DHT22;40521;53.146;6.556;2023-03-20T00:36:34;6.50;99.90
54622;DHT22;40521;53.146;6.556;2023-03-20T00:39:00;6.40;99.90
54622;DHT22;40521;53.146;6.556;2023-03-20T00:46:45;6.70;99.90
54622;DHT22;40521;53.146;6.556;2023-03-20T00:49:11;6.80;99.90
54622;DHT22;40521;53.146;6.556;2023-03-20T00:51:37;6.80;99.90
54622;DHT22;40521;53.146;6.556;2023-03-20T00:54:14;6.80;99.90
54622;DHT22;40521;53.146;6.556;2023-03-20T00:56:41;6.70;99.90
54622;DHT22;40521;53.146;6.556;2023-03-20T00:59:08;6.80;99.90
54622;DHT22;40521;53.146;6.556;2023-03-20T01:01:38;6.70;99.90
54622;DHT22;40521;53.146;6.556;2023-03-20T01:04:05;6.80;99.90
54622;DHT22;40521;53.146;6.556;2023-03-20T01:06:34;6.80;99.90
54622;DHT22;40521;53.146;6.556;2023-03-20T01:09:00;6.70;99.90
54622;DHT22;40521;53.146;6.556;2023-03-20T01:11:25;6.70;99.90
54622;DHT22;40521;53.146;6.556;2023-03-20T01:13:51;6.70;99.90
54622;DHT22;40521;53.146;6.556;2023-03-20T01:16:22;7.00;99.90
54622;DHT22;40521;53.146;6.556;2023-03-20T01:18:48;6.80;99.90
54622;DHT22;40521;53.146;6.556;2023-03-20T01:21:14;5.40;99.90
54622;DHT22;40521;53.146;6.556;2023-03-20T01:23:40;7.80;99.90
54622;DHT22;40521;53.146;6.556;2023-03-20T01:26:20;7.10;99.90
54622;DHT22;40521;53.146;6.556;2023-03-20T01:28:47;6.90;99.90
54622;DHT22;40521;53.146;6.556;2023-03-20T01:31:14;7.00;99.90
54622;DHT22;40521;53.146;6.556;2023-03-20T01:33:39;6.90;99.90
54622;DHT22;40521;53.146;6.556;2023-03-20T01:36:05;6.90;99.90
54622;DHT22;40521;53.146;6.556;2023-03-20T01:38:30;6.80;99.90
54622;DHT22;40521;53.146;6.556;2023-03-20T01:41:03;7.80;99.90
54622;DHT22;40521;53.146;6.556;2023-03-20T01:43:29;6.90;99.90
54622;DHT22;40521;53.146;6.556;2023-03-20T01:46:00;7.10;99.90
54622;DHT22;40521;53.146;6.556;2023-03-20T01:51:24;6.90;99.90
54622;DHT22;40521;53.146;6.556;2023-03-20T01:54:12;7.10;99.90
54622;DHT22;40521;53.146;6.556;2023-03-20T02:09:18;7.00;99.90
54622;DHT22;40521;53.146;6.556;2023-03-20T02:11:44;7.20;99.90
54622;DHT22;40521;53.146;6.556;2023-03-20T02:14:10;7.00;99.90
54622;DHT22;40521;53.146;6.556;2023-03-20T02:16:39;7.00;99.90
54622;DHT22;40521;53.146;6.556;2023-03-20T02:19:07;7.00;99.90
54622;DHT22;40521;53.146;6.556;2023-03-20T02:37:35;7.10;99.90
54622;DHT22;40521;53.146;6.556;2023-03-20T02:40:24;7.10;99.90
54622;DHT22;40521;53.146;6.556;2023-03-20T02:48:52;7.00;99.90
54622;DHT22;40521;53.146;6.556;2023-03-20T02:55:41;7.10;99.90
54622;DHT22;40521;53.146;6.556;2023-03-20T03:00:44;7.10;99.90
54622;DHT22;40521;53.146;6.556;2023-03-20T03:03:13;7.10;99.90
54622;DHT22;40521;53.146;6.556;2023-03-20T03:05:52;7.10;99.90
54622;DHT22;40521;53.146;6.556;2023-03-20T03:08:19;7.10;99.90
54622;DHT22;40521;53.146;6.556;2023-03-20T03:10:48;7.10;99.90
54622;DHT22;40521;53.146;6.556;2023-03-20T03:13:16;5.80;99.90
54622;DHT22;40521;53.146;6.556;2023-03-20T03:15:45;7.10;99.90
54622;DHT22;40521;53.146;6.556;2023-03-20T03:18:12;7.20;99.90
54622;DHT22;40521;53.146;6.556;2023-03-20T03:20:39;7.10;99.90
54622;DHT22;40521;53.146;6.556;2023-03-20T03:23:09;7.10;99.90
54622;DHT22;40521;53.146;6.556;2023-03-20T03:25:39;7.20;99.90
54622;DHT22;40521;53.146;6.556;2023-03-20T03:30:42;7.10;99.90
54622;DHT22;40521;53.146;6.556;2023-03-20T03:35:44;7.10;99.90
54622;DHT22;40521;53.146;6.556;2023-03-20T03:38:30;6.10;99.90
54622;DHT22;40521;53.146;6.556;2023-03-20T03:43:33;7.10;99.90
54622;DHT22;40521;53.146;6.556;2023-03-20T03:46:02;7.10;99.90
54622;DHT22;40521;53.146;6.556;2023-03-20T03:48:31;7.10;99.90
54622;DHT22;40521;53.146;6.556;2023-03-20T03:51:01;7.20;99.90
54622;DHT22;40521;53.146;6.556;2023-03-20T03:53:30;7.20;99.90
54622;DHT22;40521;53.146;6.556;2023-03-20T03:55:58;7.20;99.90
54622;DHT22;40521;53.146;6.556;2023-03-20T03:58:26;7.20;99.90
54622;DHT22;40521;53.146;6.556;2023-03-20T04:00:53;7.20;99.90
54622;DHT22;40521;53.146;6.556;2023-03-20T04:03:21;7.20;99.90
54622;DHT22;40521;53.146;6.556;2023-03-20T04:05:48;7.20;99.90
54622;DHT22;40521;53.146;6.556;2023-03-20T04:08:15;7.20;99.90
54622;DHT22;40521;53.146;6.556;2023-03-20T04:10:41;9.20;99.90
54622;DHT22;40521;53.146;6.556;2023-03-20T04:13:06;7.20;99.90
54622;DHT22;40521;53.146;6.556;2023-03-20T04:15:32;7.30;99.90
54622;DHT22;40521;53.146;6.556;2023-03-20T04:17:58;7.10;99.90
54622;DHT22;40521;53.146;6.556;2023-03-20T04:20:23;7.20;99.90
54622;DHT22;40521;53.146;6.556;2023-03-20T04:22:49;7.20;99.90
54622;DHT22;40521;53.146;6.556;2023-03-20T04:25:19;7.30;99.90
54622;DHT22;40521;53.146;6.556;2023-03-20T04:27:45;7.20;99.90
54622;DHT22;40521;53.146;6.556;2023-03-20T04:30:11;7.20;99.90
54622;DHT22;40521;53.146;6.556;2023-03-20T04:32:37;7.60;99.90
54622;DHT22;40521;53.146;6.556;2023-03-20T04:35:02;7.40;99.90
54622;DHT22;40521;53.146;6.556;2023-03-20T04:37:28;7.20;99.90
54622;DHT22;40521;53.146;6.556;2023-03-20T04:39:54;7.20;99.90
54622;DHT22;40521;53.146;6.556;2023-03-20T04:42:20;7.10;99.90
54622;DHT22;40521;53.146;6.556;2023-03-20T04:44:46;7.10;99.90
54622;DHT22;40521;53.146;6.556;2023-03-20T04:47:11;7.10;99.90
54622;DHT22;40521;53.146;6.556;2023-03-20T04:49:37;7.30;99.90
54622;DHT22;40521;53.146;6.556;2023-03-20T04:52:02;7.10;99.90
54622;DHT22;40521;53.146;6.556;2023-03-20T04:54:28;7.10;99.90
54622;DHT22;40521;53.146;6.556;2023-03-20T04:56:54;7.30;99.90
54622;DHT22;40521;53.146;6.556;2023-03-20T04:59:19;7.40;99.90
54622;DHT22;40521;53.146;6.556;2023-03-20T05:01:45;7.30;99.90
54622;DHT22;40521;53.146;6.556;2023-03-20T05:04:11;7.30;99.90
54622;DHT22;40521;53.146;6.556;2023-03-20T05:06:37;7.10;99.90
54622;DHT22;40521;53.146;6.556;2023-03-20T05:09:02;6.40;99.90
54622;DHT22;40521;53.146;6.556;2023-03-20T05:11:28;7.60;99.90
54622;DHT22;40521;53.146;6.556;2023-03-20T05:13:54;7.20;99.90
54622;DHT22;40521;53.146;6.556;2023-03-20T05:16:20;7.30;99.90
54622;DHT22;40521;53.146;6.556;2023-03-20T05:18:45;7.10;99.90
54622;DHT22;40521;53.146;6.556;2023-03-20T05:21:11;7.10;99.90
54622;DHT22;40521;53.146;6.556;2023-03-20T05:23:37;7.10;99.90
54622;DHT22;40521;53.146;6.556;2023-03-20T05:26:03;7.20;99.90
54622;DHT22;40521;53.146;6.556;2023-03-20T05:28:28;7.10;99.90
54622;DHT22;40521;53.146;6.556;2023-03-20T05:30:54;7.20;99.90
54622;DHT22;40521;53.146;6.556;2023-03-20T05:33:20;7.10;99.90
54622;DHT22;40521;53.146;6.556;2023-03-20T05:35:46;7.10;99.90
54622;DHT22;40521;53.146;6.556;2023-03-20T05:38:11;7.10;99.90
54622;DHT22;40521;53.146;6.556;2023-03-20T05:40:37;7.20;99.90
54622;DHT22;40521;53.146;6.556;2023-03-20T05:43:03;7.10;99.90
54622;DHT22;40521;53.146;6.556;2023-03-20T05:45:28;7.10;99.90
54622;DHT22;40521;53.146;6.556;2023-03-20T05:47:54;7.10;99.90
54622;DHT22;40521;53.146;6.556;2023-03-20T05:50:20;7.40;99.90
54622;DHT22;40521;53.146;6.556;2023-03-20T05:52:46;7.10;99.90
54622;DHT22;40521;53.146;6.556;2023-03-20T05:55:12;7.10;99.90
54622;DHT22;40521;53.146;6.556;2023-03-20T05:57:38;7.10;99.90
54622;DHT22;40521;53.146;6.556;2023-03-20T06:00:04;7.10;99.90
54622;DHT22;40521;53.146;6.556;2023-03-20T06:02:31;7.10;99.90
54622;DHT22;40521;53.146;6.556;2023-03-20T06:04:57;7.10;99.90
54622;DHT22;40521;53.146;6.556;2023-03-20T06:07:22;7.10;99.90
54622;DHT22;40521;53.146;6.556;2023-03-20T06:09:48;7.10;99.90
54622;DHT22;40521;53.146;6.556;2023-03-20T06:12:13;7.10;99.90
54622;DHT22;40521;53.146;6.556;2023-03-20T06:14:40;7.00;99.90
54622;DHT22;40521;53.146;6.556;2023-03-20T06:17:06;6.70;99.90
54622;DHT22;40521;53.146;6.556;2023-03-20T06:19:31;7.10;99.90
54622;DHT22;40521;53.146;6.556;2023-03-20T06:21:57;7.10;99.90
54622;DHT22;40521;53.146;6.556;2023-03-20T06:24:23;7.10;99.90
54622;DHT22;40521;53.146;6.556;2023-03-20T06:26:48;7.10;99.90
54622;DHT22;40521;53.146;6.556;2023-03-20T06:29:14;7.40;99.90
54622;DHT22;40521;53.146;6.556;2023-03-20T06:31:39;7.20;99.90
54622;DHT22;40521;53.146;6.556;2023-03-20T06:34:05;7.20;99.90
54622;DHT22;40521;53.146;6.556;2023-03-20T06:36:31;7.20;99.90
54622;DHT22;40521;53.146;6.556;2023-03-20T06:38:57;7.20;99.90
54622;DHT22;40521;53.146;6.556;2023-03-20T06:41:22;7.30;99.90
54622;DHT22;40521;53.146;6.556;2023-03-20T06:43:48;7.30;99.90
54622;DHT22;40521;53.146;6.556;2023-03-20T06:46:14;7.30;99.90
54622;DHT22;40521;53.146;6.556;2023-03-20T06:48:39;7.30;99.90
54622;DHT22;40521;53.146;6.556;2023-03-20T06:51:05;7.40;99.90
54622;DHT22;40521;53.146;6.556;2023-03-20T06:53:32;7.90;99.90
54622;DHT22;40521;53.146;6.556;2023-03-20T06:55:58;6.30;99.90
54622;DHT22;40521;53.146;6.556;2023-03-20T06:58:24;7.40;99.90
54622;DHT22;40521;53.146;6.556;2023-03-20T07:00:49;7.40;99.90
54622;DHT22;40521;53.146;6.556;2023-03-20T07:03:16;7.50;99.90
54622;DHT22;40521;53.146;6.556;2023-03-20T07:05:41;7.50;99.90
54622;DHT22;40521;53.146;6.556;2023-03-20T07:08:07;7.50;99.90
54622;DHT22;40521;53.146;6.556;2023-03-20T07:10:34;7.50;99.90
54622;DHT22;40521;53.146;6.556;2023-03-20T07:13:00;7.60;99.90
54622;DHT22;40521;53.146;6.556;2023-03-20T07:15:26;7.90;99.90
54622;DHT22;40521;53.146;6.556;2023-03-20T07:17:52;7.60;99.90
54622;DHT22;40521;53.146;6.556;2023-03-20T07:20:18;7.60;99.90
54622;DHT22;40521;53.146;6.556;2023-03-20T07:22:43;7.70;99.90
54622;DHT22;40521;53.146;6.556;2023-03-20T07:25:09;7.70;99.90
54622;DHT22;40521;53.146;6.556;2023-03-20T07:27:35;7.80;99.90
54622;DHT22;40521;53.146;6.556;2023-03-20T07:30:02;7.90;99.90
54622;DHT22;40521;53.146;6.556;2023-03-20T07:32:28;7.80;99.90
54622;DHT22;40521;53.146;6.556;2023-03-20T07:34:54;6.30;99.90
54622;DHT22;40521;53.146;6.556;2023-03-20T07:37:20;8.00;99.90
54622;DHT22;40521;53.146;6.556;2023-03-20T07:39:45;8.10;99.90
54622;DHT22;40521;53.146;6.556;2023-03-20T07:42:11;8.10;99.90
54622;DHT22;40521;53.146;6.556;2023-03-20T07:44:38;8.20;99.90
54622;DHT22;40521;53.146;6.556;2023-03-20T07:47:04;8.20;99.90
54622;DHT22;40521;53.146;6.556;2023-03-20T07:49:31;8.20;99.90
54622;DHT22;40521;53.146;6.556;2023-03-20T07:51:57;8.30;99.90
54622;DHT22;40521;53.146;6.556;2023-03-20T07:54:23;8.30;99.90
54622;DHT22;40521;53.146;6.556;2023-03-20T07:56:48;8.30;99.90
54622;DHT22;40521;53.146;6.556;2023-03-20T07:59:15;8.40;99.90
54622;DHT22;40521;53.146;6.556;2023-03-20T08:01:41;8.40;99.90
54622;DHT22;40521;53.146;6.556;2023-03-20T08:04:06;8.50;99.90
54622;DHT22;40521;53.146;6.556;2023-03-20T08:06:32;8.50;99.90
54622;DHT22;40521;53.146;6.556;2023-03-20T08:08:58;8.50;99.90
54622;DHT22;40521;53.146;6.556;2023-03-20T08:11:23;8.50;99.90
54622;DHT22;40521;53.146;6.556;2023-03-20T08:13:49;8.60;99.90
54622;DHT22;40521;53.146;6.556;2023-03-20T08:16:15;8.70;99.90
54622;DHT22;40521;53.146;6.556;2023-03-20T08:18:40;8.50;99.90
54622;DHT22;40521;53.146;6.556;2023-03-20T08:21:07;8.70;99.90
54622;DHT22;40521;53.146;6.556;2023-03-20T08:23:33;8.70;99.90
54622;DHT22;40521;53.146;6.556;2023-03-20T08:25:58;8.80;99.90
54622;DHT22;40521;53.146;6.556;2023-03-20T08:28:24;7.60;99.90
54622;DHT22;40521;53.146;6.556;2023-03-20T08:30:50;8.80;99.90
54622;DHT22;40521;53.146;6.556;2023-03-20T08:33:16;8.90;99.90
54622;DHT22;40521;53.146;6.556;2023-03-20T08:35:42;8.90;99.90
54622;DHT22;40521;53.146;6.556;2023-03-20T08:38:14;8.90;99.90
54622;DHT22;40521;53.146;6.556;2023-03-20T08:40:40;8.90;99.90
54622;DHT22;40521;53.146;6.556;2023-03-20T08:43:06;8.80;99.90
54622;DHT22;40521;53.146;6.556;2023-03-20T08:45:32;8.90;99.90
54622;DHT22;40521;53.146;6.556;2023-03-20T08:47:57;8.90;99.90
54622;DHT22;40521;53.146;6.556;2023-03-20T08:50:23;9.00;99.90
54622;DHT22;40521;53.146;6.556;2023-03-20T08:52:48;9.00;99.90
54622;DHT22;40521;53.146;6.556;2023-03-20T08:55:14;9.10;99.90
54622;DHT22;40521;53.146;6.556;2023-03-20T08:57:40;9.10;99.90
54622;DHT22;40521;53.146;6.556;2023-03-20T09:00:06;9.10;99.90
54622;DHT22;40521;53.146;6.556;2023-03-20T09:02:32;9.10;99.90
54622;DHT22;40521;53.146;6.556;2023-03-20T09:04:58;9.20;99.90
54622;DHT22;40521;53.146;6.556;2023-03-20T09:07:24;9.20;99.90
54622;DHT22;40521;53.146;6.556;2023-03-20T09:09:49;9.20;99.90
54622;DHT22;40521;53.146;6.556;2023-03-20T09:12:15;9.30;99.90
54622;DHT22;40521;53.146;6.556;2023-03-20T09:14:41;9.30;99.90
54622;DHT22;40521;53.146;6.556;2023-03-20T09:17:07;9.40;99.90
54622;DHT22;40521;53.146;6.556;2023-03-20T09:19:32;9.50;99.90
54622;DHT22;40521;53.146;6.556;2023-03-20T09:21:58;9.50;99.90
54622;DHT22;40521;53.146;6.556;2023-03-20T09:24:24;9.60;99.90
54622;DHT22;40521;53.146;6.556;2023-03-20T09:26:50;9.70;99.90
54622;DHT22;40521;53.146;6.556;2023-03-20T09:29:16;9.80;99.90
54622;DHT22;40521;53.146;6.556;2023-03-20T09:31:42;10.00;99.90
54622;DHT22;40521;53.146;6.556;2023-03-20T09:34:07;10.00;99.90
54622;DHT22;40521;53.146;6.556;2023-03-20T09:36:33;10.10;99.90
54622;DHT22;40521;53.146;6.556;2023-03-20T09:38:59;10.10;99.90
54622;DHT22;40521;53.146;6.556;2023-03-20T09:41:25;10.10;99.90
54622;DHT22;40521;53.146;6.556;2023-03-20T09:49:37;10.10;99.90
54622;DHT22;40521;53.146;6.556;2023-03-20T09:52:15;10.10;99.90
54622;DHT22;40521;53.146;6.556;2023-03-20T09:54:43;10.10;99.90
54622;DHT22;40521;53.146;6.556;2023-03-20T09:57:45;10.20;99.90
54622;DHT22;40521;53.146;6.556;2023-03-20T10:00:09;10.20;99.90
54622;DHT22;40521;53.146;6.556;2023-03-20T10:02:39;10.20;99.90
54622;DHT22;40521;53.146;6.556;2023-03-20T10:07:44;10.30;99.90
54622;DHT22;40521;53.146;6.556;2023-03-20T10:10:13;10.40;99.90
54622;DHT22;40521;53.146;6.556;2023-03-20T10:12:47;10.60;99.90
54622;DHT22;40521;53.146;6.556;2023-03-20T10:17:59;10.70;99.90
54622;DHT22;40521;53.146;6.556;2023-03-20T10:20:35;10.70;99.90
54622;DHT22;40521;53.146;6.556;2023-03-20T10:23:22;10.70;99.90
54622;DHT22;40521;53.146;6.556;2023-03-20T10:25:50;10.50;99.90
54622;DHT22;40521;53.146;6.556;2023-03-20T10:28:23;10.40;99.90
54622;DHT22;40521;53.146;6.556;2023-03-20T10:36:08;10.40;99.90
54622;DHT22;40521;53.146;6.556;2023-03-20T10:38:44;10.40;99.90
54622;DHT22;40521;53.146;6.556;2023-03-20T10:41:17;10.30;99.90
54622;DHT22;40521;53.146;6.556;2023-03-20T10:43:44;10.30;99.90
54622;DHT22;40521;53.146;6.556;2023-03-20T10:46:16;9.20;99.90
54622;DHT22;40521;53.146;6.556;2023-03-20T10:51:15;10.30;99.90
54622;DHT22;40521;53.146;6.556;2023-03-20T10:56:09;10.30;99.90
54622;DHT22;40521;53.146;6.556;2023-03-20T10:58:37;10.40;99.90
54622;DHT22;40521;53.146;6.556;2023-03-20T11:01:03;10.40;99.90
54622;DHT22;40521;53.146;6.556;2023-03-20T11:03:32;10.40;99.90
54622;DHT22;40521;53.146;6.556;2023-03-20T11:06:02;10.40;99.90
54622;DHT22;40521;53.146;6.556;2023-03-20T11:08:30;10.40;99.90
54622;DHT22;40521;53.146;6.556;2023-03-20T11:10:59;10.40;99.90
54622;DHT22;40521;53.146;6.556;2023-03-20T11:15:52;10.50;99.90
54622;DHT22;40521;53.146;6.556;2023-03-20T11:18:18;10.30;99.90
54622;DHT22;40521;53.146;6.556;2023-03-20T11:23:13;10.30;99.90
54622;DHT22;40521;53.146;6.556;2023-03-20T11:25:45;10.20;99.90
54622;DHT22;40521;53.146;6.556;2023-03-20T11:31:01;10.40;99.90
54622;DHT22;40521;53.146;6.556;2023-03-20T11:33:27;10.40;99.90
54622;DHT22;40521;53.146;6.556;2023-03-20T11:35:54;10.30;99.90
54622;DHT22;40521;53.146;6.556;2023-03-20T11:38:20;10.30;99.90
54622;DHT22;40521;53.146;6.556;2023-03-20T11:40:46;10.20;99.90
54622;DHT22;40521;53.146;6.556;2023-03-20T11:43:14;10.20;99.90
54622;DHT22;40521;53.146;6.556;2023-03-20T11:45:43;10.20;99.90
54622;DHT22;40521;53.146;6.556;2023-03-20T11:48:20;10.20;99.90
54622;DHT22;40521;53.146;6.556;2023-03-20T11:53:34;10.20;99.90
54622;DHT22;40521;53.146;6.556;2023-03-20T11:58:36;10.20;99.90
54622;DHT22;40521;53.146;6.556;2023-03-20T12:01:03;10.10;99.90
54622;DHT22;40521;53.146;6.556;2023-03-20T12:03:39;10.10;99.90
54622;DHT22;40521;53.146;6.556;2023-03-20T12:06:06;10.10;99.90
54622;DHT22;40521;53.146;6.556;2023-03-20T12:08:32;9.90;99.90
54622;DHT22;40521;53.146;6.556;2023-03-20T12:11:01;10.10;99.90
54622;DHT22;40521;53.146;6.556;2023-03-20T12:13:32;9.90;99.90
54622;DHT22;40521;53.146;6.556;2023-03-20T12:16:00;9.80;99.90
54622;DHT22;40521;53.146;6.556;2023-03-20T12:18:30;10.00;99.90
54622;DHT22;40521;53.146;6.556;2023-03-20T12:21:06;9.80;99.90
54622;DHT22;40521;53.146;6.556;2023-03-20T12:23:43;9.70;99.90
54622;DHT22;40521;53.146;6.556;2023-03-20T12:26:14;9.80;99.90
54622;DHT22;40521;53.146;6.556;2023-03-20T12:31:21;10.10;99.90
54622;DHT22;40521;53.146;6.556;2023-03-20T12:33:49;10.00;99.90
54622;DHT22;40521;53.146;6.556;2023-03-20T12:36:17;9.90;99.90
54622;DHT22;40521;53.146;6.556;2023-03-20T12:38:43;10.00;99.90
54622;DHT22;40521;53.146;6.556;2023-03-20T12:46:23;9.90;99.90
54622;DHT22;40521;53.146;6.556;2023-03-20T13:01:30;10.00;99.90
54622;DHT22;40521;53.146;6.556;2023-03-20T13:06:35;9.80;99.90
54622;DHT22;40521;53.146;6.556;2023-03-20T13:11:50;9.60;99.90
54622;DHT22;40521;53.146;6.556;2023-03-20T13:14:24;9.70;99.90
54622;DHT22;40521;53.146;6.556;2023-03-20T13:17:09;9.50;99.90
54622;DHT22;40521;53.146;6.556;2023-03-20T13:19:58;9.40;99.90
54622;DHT22;40521;53.146;6.556;2023-03-20T13:22:36;9.40;99.90
54622;DHT22;40521;53.146;6.556;2023-03-20T13:25:05;9.40;99.90
54622;DHT22;40521;53.146;6.556;2023-03-20T13:27:39;9.20;99.90
54622;DHT22;40521;53.146;6.556;2023-03-20T13:30:11;9.40;99.90
54622;DHT22;40521;53.146;6.556;2023-03-20T13:35:42;9.10;99.90
54622;DHT22;40521;53.146;6.556;2023-03-20T13:38:17;9.20;99.90
54622;DHT22;40521;53.146;6.556;2023-03-20T13:40:45;9.20;99.90
54622;DHT22;40521;53.146;6.556;2023-03-20T13:48:39;9.20;99.90
54622;DHT22;40521;53.146;6.556;2023-03-20T13:56:14;9.10;99.90
54622;DHT22;40521;53.146;6.556;2023-03-20T13:58:51;9.10;99.90
54622;DHT22;40521;53.146;6.556;2023-03-20T14:03:53;9.50;99.90
54622;DHT22;40521;53.146;6.556;2023-03-20T14:08:53;9.20;99.90
54622;DHT22;40521;53.146;6.556;2023-03-20T14:13:46;9.10;99.90
54622;DHT22;40521;53.146;6.556;2023-03-20T14:16:14;9.10;99.90
54622;DHT22;40521;53.146;6.556;2023-03-20T14:18:40;9.00;99.90
54622;DHT22;40521;53.146;6.556;2023-03-20T14:21:09;9.00;99.90
54622;DHT22;40521;53.146;6.556;2023-03-20T14:23:40;8.90;99.90
54622;DHT22;40521;53.146;6.556;2023-03-20T14:26:40;9.00;99.90
54622;DHT22;40521;53.146;6.556;2023-03-20T14:31:34;8.90;99.90
54622;DHT22;40521;53.146;6.556;2023-03-20T14:36:45;8.90;99.90
54622;DHT22;40521;53.146;6.556;2023-03-20T14:51:47;8.90;99.90
54622;DHT22;40521;53.146;6.556;2023-03-20T14:54:26;8.90;99.90
54622;DHT22;40521;53.146;6.556;2023-03-20T14:56:52;8.90;99.90
54622;DHT22;40521;53.146;6.556;2023-03-20T14:59:21;8.90;99.90
54622;DHT22;40521;53.146;6.556;2023-03-20T15:01:53;8.90;99.90
54622;DHT22;40521;53.146;6.556;2023-03-20T15:06:59;8.90;99.90
54622;DHT22;40521;53.146;6.556;2023-03-20T15:09:26;8.90;99.90
54622;DHT22;40521;53.146;6.556;2023-03-20T15:11:53;8.90;99.90
54622;DHT22;40521;53.146;6.556;2023-03-20T15:14:25;8.80;99.90
54622;DHT22;40521;53.146;6.556;2023-03-20T15:16:58;8.80;99.90
54622;DHT22;40521;53.146;6.556;2023-03-20T15:19:24;8.80;99.90
54622;DHT22;40521;53.146;6.556;2023-03-20T15:21:50;8.70;99.90
54622;DHT22;40521;53.146;6.556;2023-03-20T15:24:18;8.80;99.90
54622;DHT22;40521;53.146;6.556;2023-03-20T15:26:44;8.70;99.90
54622;DHT22;40521;53.146;6.556;2023-03-20T15:29:11;8.70;99.90
54622;DHT22;40521;53.146;6.556;2023-03-20T15:31:38;8.70;99.90
54622;DHT22;40521;53.146;6.556;2023-03-20T15:34:24;8.80;99.90
54622;DHT22;40521;53.146;6.556;2023-03-20T15:36:51;8.80;99.90
54622;DHT22;40521;53.146;6.556;2023-03-20T15:41:46;8.80;99.90
54622;DHT22;40521;53.146;6.556;2023-03-20T15:49:16;8.80;99.90
54622;DHT22;40521;53.146;6.556;2023-03-20T15:51:42;8.80;99.90
54622;DHT22;40521;53.146;6.556;2023-03-20T15:54:08;8.70;99.90
54622;DHT22;40521;53.146;6.556;2023-03-20T15:56:36;8.80;99.90
54622;DHT22;40521;53.146;6.556;2023-03-20T15:59:08;8.70;99.90
54622;DHT22;40521;53.146;6.556;2023-03-20T16:01:35;8.70;99.90
54622;DHT22;40521;53.146;6.556;2023-03-20T16:04:01;8.70;99.90
54622;DHT22;40521;53.146;6.556;2023-03-20T16:06:27;8.70;99.90
54622;DHT22;40521;53.146;6.556;2023-03-20T16:09:00;8.70;99.90
54622;DHT22;40521;53.146;6.556;2023-03-20T16:11:37;8.70;99.90
54622;DHT22;40521;53.146;6.556;2023-03-20T16:14:04;8.70;99.90
54622;DHT22;40521;53.146;6.556;2023-03-20T16:16:30;8.70;99.90
54622;DHT22;40521;53.146;6.556;2023-03-20T16:19:05;8.70;99.90
54622;DHT22;40521;53.146;6.556;2023-03-20T16:21:32;8.70;99.90
54622;DHT22;40521;53.146;6.556;2023-03-20T16:23:59;8.70;99.90
54622;DHT22;40521;53.146;6.556;2023-03-20T16:26:29;8.70;99.90
54622;DHT22;40521;53.146;6.556;2023-03-20T16:28:59;8.70;99.90
54622;DHT22;40521;53.146;6.556;2023-03-20T16:33:52;8.70;99.90
54622;DHT22;40521;53.146;6.556;2023-03-20T16:36:25;8.70;99.90
54622;DHT22;40521;53.146;6.556;2023-03-20T16:38:53;8.70;99.90
54622;DHT22;40521;53.146;6.556;2023-03-20T16:41:30;8.70;99.90
54622;DHT22;40521;53.146;6.556;2023-03-20T16:43:56;8.70;99.90
54622;DHT22;40521;53.146;6.556;2023-03-20T16:46:23;8.70;99.90
54622;DHT22;40521;53.146;6.556;2023-03-20T16:48:51;8.70;99.90
54622;DHT22;40521;53.146;6.556;2023-03-20T16:53:46;8.80;99.90
54622;DHT22;40521;53.146;6.556;2023-03-20T16:56:13;8.80;99.90
54622;DHT22;40521;53.146;6.556;2023-03-20T16:58:40;8.70;99.90
54622;DHT22;40521;53.146;6.556;2023-03-20T17:01:09;8.70;99.90
54622;DHT22;40521;53.146;6.556;2023-03-20T17:08:53;8.70;99.90
54622;DHT22;40521;53.146;6.556;2023-03-20T17:11:26;8.70;99.90
54622;DHT22;40521;53.146;6.556;2023-03-20T17:13:52;9.50;99.90
54622;DHT22;40521;53.146;6.556;2023-03-20T17:16:19;8.70;99.90
54622;DHT22;40521;53.146;6.556;2023-03-20T17:18:45;8.60;99.90
54622;DHT22;40521;53.146;6.556;2023-03-20T17:21:11;8.70;99.90
54622;DHT22;40521;53.146;6.556;2023-03-20T17:23:37;8.70;99.90
54622;DHT22;40521;53.146;6.556;2023-03-20T17:26:03;8.60;99.90
54622;DHT22;40521;53.146;6.556;2023-03-20T17:28:35;8.60;99.90
54622;DHT22;40521;53.146;6.556;2023-03-20T17:31:01;8.60;99.90
54622;DHT22;40521;53.146;6.556;2023-03-20T17:33:30;8.60;99.90
54622;DHT22;40521;53.146;6.556;2023-03-20T17:35:56;8.60;99.90
54622;DHT22;40521;53.146;6.556;2023-03-20T17:38:22;7.60;99.90
54622;DHT22;40521;53.146;6.556;2023-03-20T17:40:49;8.70;99.90
54622;DHT22;40521;53.146;6.556;2023-03-20T17:43:16;8.50;99.90
54622;DHT22;40521;53.146;6.556;2023-03-20T17:45:42;8.50;99.90
54622;DHT22;40521;53.146;6.556;2023-03-20T17:48:18;8.50;99.90
54622;DHT22;40521;53.146;6.556;2023-03-20T17:50:45;8.50;99.90
54622;DHT22;40521;53.146;6.556;2023-03-20T17:53:21;8.50;99.90
54622;DHT22;40521;53.146;6.556;2023-03-20T17:55:48;8.50;99.90
54622;DHT22;40521;53.146;6.556;2023-03-20T17:58:15;8.60;99.90
54622;DHT22;40521;53.146;6.556;2023-03-20T18:00:41;8.60;99.90
54622;DHT22;40521;53.146;6.556;2023-03-20T18:03:07;8.50;99.90
54622;DHT22;40521;53.146;6.556;2023-03-20T18:05:32;8.50;99.90
54622;DHT22;40521;53.146;6.556;2023-03-20T18:07:58;8.50;99.90
54622;DHT22;40521;53.146;6.556;2023-03-20T18:10:28;9.50;99.90
54622;DHT22;40521;53.146;6.556;2023-03-20T18:12:56;8.50;99.90
54622;DHT22;40521;53.146;6.556;2023-03-20T18:15:22;8.50;99.90
54622;DHT22;40521;53.146;6.556;2023-03-20T18:17:47;8.50;99.90
54622;DHT22;40521;53.146;6.556;2023-03-20T18:20:19;8.50;99.90
54622;DHT22;40521;53.146;6.556;2023-03-20T18:22:46;8.50;99.90
54622;DHT22;40521;53.146;6.556;2023-03-20T18:25:12;8.50;99.90
54622;DHT22;40521;53.146;6.556;2023-03-20T18:27:37;8.50;99.90
54622;DHT22;40521;53.146;6.556;2023-03-20T18:30:05;8.50;99.90
54622;DHT22;40521;53.146;6.556;2023-03-20T18:32:35;8.50;99.90
54622;DHT22;40521;53.146;6.556;2023-03-20T18:35:00;8.50;99.90
54622;DHT22;40521;53.146;6.556;2023-03-20T18:37:26;8.50;99.90
54622;DHT22;40521;53.146;6.556;2023-03-20T18:39:51;8.50;99.90
54622;DHT22;40521;53.146;6.556;2023-03-20T18:42:17;8.50;99.90
54622;DHT22;40521;53.146;6.556;2023-03-20T18:44:42;8.50;99.90
54622;DHT22;40521;53.146;6.556;2023-03-20T18:47:08;8.50;99.90
54622;DHT22;40521;53.146;6.556;2023-03-20T18:49:34;8.50;99.90
54622;DHT22;40521;53.146;6.556;2023-03-20T18:52:03;8.50;99.90